Terminal Aerodrome Forecast
Issued by NWS

Home | Current Version | Previous Version | Graphics & Text | Print | Product List | Glossary On
Versions: 1 2 3 4 5 6 7 8 9 10 11 12 13 14 15 16 17 18 19 20 21
000
FTUS43 KBIS 042055 AAB
TAFJMS
TAF AMD
KJMS 042055Z 0421/0518 28012G20KT P6SM BKN025
     FM042200 28011KT P6SM FEW030
     FM050000 25007KT P6SM SKC
     FM050200 22006KT P6SM BKN150
     FM051400 18006KT 4SM BR OVC015=

USA.gov is the U.S. government's official web portal to all federal, state and local government web resources and services.